Time;durP1;ratioP1;P1;durP2;ratioP2;P2;SDS_P1;SDS_P2;PMS_P1;PMS_P2;Temp;Humidity;BMP_temperature;BMP_pressure;BME280_temperature;BME280_humidity;BME280_pressure;Samples;Min_cycle;Max_cycle;Signal;HPM_P1;HPM_P2
2022/02/17 00:01:38;;;;;;;9.65;2.28;;;16.10;73.70;;;;;;4230461;28;20057;-60
2022/02/17 00:04:00;;;;;;;15.73;3.88;;;16.10;74.30;;;;;;4232544;28;20048;-60
2022/02/17 00:06:23;;;;;;;7.28;1.70;;;16.10;73.80;;;;;;4232497;28;20047;-59
2022/02/17 00:08:45;;;;;;;15.55;3.30;;;16.10;73.80;;;;;;4232461;28;20062;-59
2022/02/17 00:11:07;;;;;;;14.73;2.83;;;16.10;74.20;;;;;;4221922;28;20059;-60
2022/02/17 00:13:29;;;;;;;13.60;2.67;;;16.10;73.30;;;;;;4215421;28;20064;-60
2022/02/17 00:15:51;;;;;;;10.02;2.78;;;16.10;73.40;;;;;;4217338;28;20055;-59
2022/02/17 00:18:16;;;;;;;11.93;2.53;;;16.00;73.10;;;;;;4232045;28;20828;-60
2022/02/17 00:20:38;;;;;;;14.98;2.70;;;16.00;73.40;;;;;;4225863;28;20063;-59
2022/02/17 00:23:01;;;;;;;20.98;3.30;;;16.00;74.10;;;;;;4215414;28;20059;-59
2022/02/17 00:25:24;;;;;;;11.68;2.67;;;16.00;73.50;;;;;;4215353;28;20087;-60
2022/02/17 00:27:46;;;;;;;14.32;3.05;;;16.00;73.00;;;;;;4215348;28;20580;-59
2022/02/17 00:30:10;;;;;;;20.10;3.45;;;16.00;72.30;;;;;;4218962;28;20122;-59
2022/02/17 00:32:32;;;;;;;8.18;2.35;;;16.00;71.30;;;;;;4229331;28;20063;-60
2022/02/17 00:34:54;;;;;;;16.73;3.00;;;16.00;72.10;;;;;;4231005;28;20098;-59
2022/02/17 00:37:16;;;;;;;15.77;3.50;;;16.00;71.70;;;;;;4222841;28;20040;-59
2022/02/17 00:39:39;;;;;;;16.55;3.53;;;15.90;71.20;;;;;;4213888;28;20078;-60
2022/02/17 00:42:03;;;;;;;19.70;3.42;;;16.00;70.30;;;;;;4215164;28;20400;-59
2022/02/17 00:44:25;;;;;;;18.35;3.20;;;15.90;72.10;;;;;;4215002;28;20096;-59
2022/02/17 00:46:48;;;;;;;15.70;3.33;;;15.90;72.80;;;;;;4218212;28;20043;-59
2022/02/17 00:49:10;;;;;;;18.55;3.58;;;15.90;72.40;;;;;;4215017;28;20070;-59
2022/02/17 00:51:33;;;;;;;14.13;2.90;;;15.90;72.10;;;;;;4225006;28;20387;-59
2022/02/17 00:53:56;;;;;;;20.15;4.15;;;15.90;73.30;;;;;;4215712;28;20510;-59
2022/02/17 00:56:19;;;;;;;18.45;4.00;;;16.00;72.80;;;;;;4230347;28;20120;-59
2022/02/17 00:58:45;;;;;;;16.20;4.28;;;16.00;73.70;;;;;;4197157;28;20139;-59
2022/02/17 01:01:18;;;;;;;18.17;4.28;;;16.10;72.60;;;;;;4195992;28;20055;-59
2022/02/17 01:03:40;;;;;;;19.05;3.80;;;16.10;72.50;;;;;;4198033;28;20785;-60
2022/02/17 01:06:03;;;;;;;17.00;3.38;;;16.20;71.90;;;;;;4197610;28;20048;-60
2022/02/17 01:08:25;;;;;;;6.53;2.83;;;16.20;72.00;;;;;;4197797;28;20103;-60
2022/02/17 01:10:48;;;;;;;12.15;2.55;;;16.20;71.90;;;;;;4196806;28;20053;-60
2022/02/17 01:13:14;;;;;;;14.65;2.60;;;16.20;71.80;;;;;;4196827;28;20115;-60
2022/02/17 01:15:36;;;;;;;13.13;3.50;;;16.20;71.20;;;;;;4196395;28;20068;-60
2022/02/17 01:17:59;;;;;;;9.82;2.78;;;16.20;71.50;;;;;;4229368;28;20051;-60
2022/02/17 01:20:26;;;;;;;12.73;1.90;;;16.20;71.50;;;;;;4230235;28;20052;-60
2022/02/17 01:22:52;;;;;;;8.38;2.28;;;16.20;71.20;;;;;;4226648;28;20048;-60
2022/02/17 01:25:14;;;;;;;10.25;2.67;;;16.10;70.80;;;;;;4198860;28;20149;-60
2022/02/17 01:27:37;;;;;;;9.30;2.42;;;16.10;70.20;;;;;;4227652;28;20051;-60
2022/02/17 01:30:01;;;;;;;12.68;2.85;;;16.10;70.90;;;;;;4229697;28;20066;-60
2022/02/17 01:32:25;;;;;;;12.90;2.65;;;16.10;71.00;;;;;;4229859;28;20809;-60
2022/02/17 01:34:47;;;;;;;12.10;3.35;;;16.10;70.80;;;;;;4229691;28;20063;-59
2022/02/17 01:37:09;;;;;;;13.15;3.20;;;16.00;68.40;;;;;;4219277;28;20055;-59
2022/02/17 01:39:31;;;;;;;12.00;2.72;;;16.00;69.20;;;;;;4213842;28;20051;-59
2022/02/17 01:41:53;;;;;;;15.73;2.42;;;16.00;70.40;;;;;;4214241;28;20131;-59
2022/02/17 01:44:19;;;;;;;12.25;2.45;;;15.90;70.80;;;;;;4196475;28;20091;-59
2022/02/17 01:46:44;;;;;;;12.52;2.53;;;15.90;70.40;;;;;;4205552;28;20048;-60
2022/02/17 01:49:07;;;;;;;12.57;2.85;;;15.90;70.50;;;;;;4213025;28;20093;-59
2022/02/17 01:51:30;;;;;;;9.70;2.35;;;15.90;70.00;;;;;;4213821;28;20067;-59
2022/02/17 01:53:52;;;;;;;14.27;2.85;;;16.00;70.30;;;;;;4213889;28;20744;-59
2022/02/17 01:56:14;;;;;;;10.15;2.47;;;16.00;69.70;;;;;;4214926;28;20499;-60
2022/02/17 01:58:37;;;;;;;13.50;2.95;;;16.10;70.40;;;;;;4212812;28;20066;-60
2022/02/17 02:01:08;;;;;;;12.27;2.38;;;16.20;70.30;;;;;;4212896;28;20062;-60
2022/02/17 02:03:31;;;;;;;8.63;2.53;;;16.30;69.70;;;;;;4213891;28;20047;-60
2022/02/17 02:05:53;;;;;;;21.42;3.85;;;16.40;68.60;;;;;;4216858;28;20108;-60
2022/02/17 02:08:17;;;;;;;23.35;4.32;;;16.40;69.40;;;;;;4229662;28;20056;-59
2022/02/17 02:10:40;;;;;;;19.48;3.90;;;16.50;68.20;;;;;;4230677;28;20073;-60
2022/02/17 02:13:03;;;;;;;16.83;2.80;;;16.50;67.60;;;;;;4229278;28;20097;-60
2022/02/17 02:15:45;;;;;;;15.73;3.38;;;16.60;67.70;;;;;;4212905;28;20063;-60
2022/02/17 02:18:09;;;;;;;18.40;3.97;;;16.60;66.60;;;;;;4213749;28;20048;-59
2022/02/17 02:20:33;;;;;;;12.63;3.55;;;16.50;67.40;;;;;;4214857;28;20048;-60
2022/02/17 02:22:55;;;;;;;20.48;4.03;;;16.50;67.30;;;;;;4213887;28;20059;-59
2022/02/17 02:25:17;;;;;;;12.20;3.03;;;16.50;67.60;;;;;;4225161;28;20048;-59
2022/02/17 02:27:42;;;;;;;8.10;2.92;;;16.40;67.80;;;;;;4229484;28;20514;-59
2022/02/17 02:30:06;;;;;;;11.98;3.03;;;16.40;65.80;;;;;;4227956;28;20070;-60
2022/02/17 02:32:29;;;;;;;17.15;3.88;;;16.30;66.80;;;;;;4229392;28;20055;-60
2022/02/17 02:34:52;;;;;;;16.42;2.92;;;16.30;67.40;;;;;;4220072;28;20055;-59
2022/02/17 02:37:16;;;;;;;17.67;3.45;;;16.30;67.30;;;;;;4212401;28;20056;-59
2022/02/17 02:39:40;;;;;;;14.48;2.92;;;16.20;67.80;;;;;;4210830;28;20070;-60
2022/02/17 02:42:03;;;;;;;19.83;3.95;;;16.20;67.50;;;;;;4227719;28;20051;-59
2022/02/17 02:44:26;;;;;;;19.40;2.88;;;16.20;67.00;;;;;;4212171;28;20129;-59
2022/02/17 02:46:57;;;;;;;13.38;3.17;;;16.10;66.90;;;;;;4213108;28;20519;-59
2022/02/17 02:49:19;;;;;;;16.35;3.17;;;16.10;67.00;;;;;;4196425;28;20140;-58
2022/02/17 02:51:41;;;;;;;9.63;2.88;;;16.00;67.50;;;;;;4195625;28;20050;-59
2022/02/17 02:54:06;;;;;;;16.35;3.47;;;16.00;65.70;;;;;;4212491;28;20056;-59
2022/02/17 02:56:33;;;;;;;14.10;3.58;;;16.00;67.00;;;;;;4212413;28;20090;-60
2022/02/17 02:58:55;;;;;;;15.70;3.75;;;16.00;68.20;;;;;;4212327;28;20052;-59
2022/02/17 03:01:19;;;;;;;16.85;3.92;;;16.00;69.10;;;;;;4212320;28;20123;-59
2022/02/17 03:03:48;;;;;;;19.35;3.28;;;16.00;67.80;;;;;;4227835;28;20553;-59
2022/02/17 03:06:11;;;;;;;13.55;2.67;;;16.00;68.10;;;;;;4229157;28;20077;-59
2022/02/17 03:08:33;;;;;;;13.75;2.80;;;16.10;68.10;;;;;;4230144;28;20127;-59
2022/02/17 03:10:57;;;;;;;18.85;3.70;;;16.00;68.10;;;;;;4229143;28;20104;-58
2022/02/17 03:13:27;;;;;;;16.63;3.92;;;16.00;67.60;;;;;;4215665;28;20052;-59
2022/02/17 03:15:49;;;;;;;16.33;3.42;;;16.00;67.50;;;;;;4212112;28;20066;-59
2022/02/17 03:18:11;;;;;;;15.48;3.05;;;16.10;68.00;;;;;;4212281;28;20048;-58
2022/02/17 03:20:33;;;;;;;18.58;3.78;;;16.10;67.70;;;;;;4212289;28;20060;-59
2022/02/17 03:22:57;;;;;;;18.15;4.68;;;16.10;67.20;;;;;;4221031;28;20085;-59
2022/02/17 03:25:20;;;;;;;11.30;3.47;;;16.10;66.60;;;;;;4230531;28;20093;-59
2022/02/17 03:27:44;;;;;;;20.58;3.92;;;16.10;65.50;;;;;;4233155;28;20051;-59
2022/02/17 03:30:32;;;;;;;21.10;4.32;;;16.10;65.90;;;;;;4230530;28;20547;-60
2022/02/17 03:33:03;;;;;;;15.13;3.58;;;16.10;65.90;;;;;;4224261;28;20051;-59
2022/02/17 03:35:25;;;;;;;17.63;3.55;;;16.20;66.30;;;;;;4231880;28;20048;-59
2022/02/17 03:37:47;;;;;;;9.90;3.85;;;16.30;66.00;;;;;;4231282;28;20491;-59
2022/02/17 03:40:13;;;;;;;15.15;3.10;;;16.40;65.30;;;;;;4229983;28;20397;-59
2022/02/17 03:42:45;;;;;;;14.40;3.58;;;16.50;65.20;;;;;;4224189;28;20055;-60
2022/02/17 03:45:08;;;;;;;18.27;3.25;;;16.50;64.60;;;;;;4219159;28;20059;-59
2022/02/17 03:47:30;;;;;;;9.00;2.60;;;16.60;65.10;;;;;;4232728;28;20058;-58
2022/02/17 03:50:00;;;;;;;22.73;4.47;;;16.60;64.20;;;;;;4231659;28;20056;-58
2022/02/17 03:52:28;;;;;;;13.65;3.13;;;16.60;64.50;;;;;;4225215;28;20044;-58
2022/02/17 03:55:22;;;;;;;14.60;3.30;;;16.60;64.10;;;;;;4213043;28;20056;-59
2022/02/17 03:57:46;;;;;;;13.25;2.80;;;16.60;64.50;;;;;;4214607;28;20059;-58
2022/02/17 04:00:13;;;;;;;16.77;3.83;;;16.50;64.40;;;;;;4225047;28;20549;-59
2022/02/17 04:02:43;;;;;;;14.27;3.90;;;16.50;64.30;;;;;;4224024;28;20079;-59
2022/02/17 04:05:08;;;;;;;13.80;3.08;;;16.50;64.80;;;;;;4230839;28;20093;-58
2022/02/17 04:07:31;;;;;;;19.50;4.45;;;16.40;63.90;;;;;;4232447;28;20067;-58
2022/02/17 04:09:59;;;;;;;18.38;3.67;;;16.40;64.40;;;;;;4231283;28;20054;-58
2022/02/17 04:12:21;;;;;;;11.88;3.00;;;16.40;64.50;;;;;;4201060;28;20059;-59
2022/02/17 04:14:45;;;;;;;13.32;2.22;;;16.40;64.60;;;;;;4218037;28;20051;-58
2022/02/17 04:17:08;;;;;;;12.73;2.97;;;16.40;64.00;;;;;;4214567;28;20056;-59
2022/02/17 04:19:50;;;;;;;14.80;2.95;;;16.40;64.50;;;;;;4214426;28;20060;-59
2022/02/17 04:22:33;;;;;;;23.08;4.00;;;16.30;64.00;;;;;;4197673;28;20048;-59
2022/02/17 04:25:32;;;;;;;10.25;2.10;;;16.30;64.20;;;;;;4197720;28;20462;-58
2022/02/17 04:27:56;;;;;;;13.98;3.15;;;16.20;64.20;;;;;;4205059;28;20036;-59
2022/02/17 04:30:20;;;;;;;12.65;2.85;;;16.20;64.90;;;;;;4203431;28;20059;-59
2022/02/17 04:32:42;;;;;;;16.70;3.00;;;16.30;65.50;;;;;;4232177;28;20060;-59
2022/02/17 04:35:18;;;;;;;18.30;4.40;;;16.30;64.70;;;;;;4230870;28;20051;-59
2022/02/17 04:37:40;;;;;;;16.58;3.97;;;16.40;64.50;;;;;;4230842;28;20066;-59
2022/02/17 04:40:04;;;;;;;13.38;3.33;;;16.40;64.10;;;;;;4230226;28;20054;-59
2022/02/17 04:42:33;;;;;;;15.85;3.33;;;16.40;64.30;;;;;;4220224;28;20454;-60
2022/02/17 04:44:57;;;;;;;17.60;3.83;;;16.40;64.20;;;;;;4230844;28;20057;-60
2022/02/17 04:47:22;;;;;;;15.52;3.58;;;16.40;63.60;;;;;;4230632;28;20501;-59
2022/02/17 04:49:44;;;;;;;18.60;3.63;;;16.40;63.30;;;;;;4219689;28;20071;-59
2022/02/17 04:52:08;;;;;;;15.30;3.33;;;16.40;63.60;;;;;;4213888;28;20143;-59
2022/02/17 04:54:31;;;;;;;14.00;3.30;;;16.40;63.80;;;;;;4213956;28;20106;-60
2022/02/17 04:56:55;;;;;;;14.27;3.63;;;16.40;63.50;;;;;;4218959;28;20552;-59
2022/02/17 04:59:23;;;;;;;18.25;3.65;;;16.30;63.70;;;;;;4221482;28;20048;-59
2022/02/17 05:01:44;;;;;;;16.58;3.40;;;16.30;63.80;;;;;;4214576;28;20561;-60
2022/02/17 05:04:17;;;;;;;22.27;3.30;;;16.30;65.00;;;;;;4214974;28;20067;-59
2022/02/17 05:06:39;;;;;;;14.45;3.50;;;16.30;63.90;;;;;;4213581;28;20148;-60
2022/02/17 05:09:02;;;;;;;13.43;2.85;;;16.40;63.90;;;;;;4221495;28;20051;-60
2022/02/17 05:11:24;;;;;;;16.75;3.78;;;16.40;63.90;;;;;;4226923;28;20055;-59
2022/02/17 05:13:49;;;;;;;26.80;4.78;;;16.40;63.80;;;;;;4229899;28;20071;-59
2022/02/17 05:16:12;;;;;;;15.88;3.13;;;16.40;64.40;;;;;;4230042;28;20095;-59
2022/02/17 05:18:38;;;;;;;15.25;3.42;;;16.40;63.70;;;;;;4224915;28;20076;-59
2022/02/17 05:21:05;;;;;;;13.73;2.85;;;16.50;63.60;;;;;;4213006;28;20424;-59
2022/02/17 05:24:05;;;;;;;17.38;4.22;;;16.50;63.20;;;;;;4146263;28;20068;-59
2022/02/17 05:26:46;;;;;;;;;;;16.60;63.10;;;;;;4199191;28;20428;-59
2022/02/17 05:29:23;;;;;;;13.73;2.97;;;16.70;62.50;;;;;;4223784;28;19946;-59
2022/02/17 05:32:02;;;;;;;12.10;2.90;;;16.70;62.50;;;;;;4229931;28;20062;-59
2022/02/17 05:34:38;;;;;;;16.00;2.88;;;16.70;62.20;;;;;;4230008;28;20508;-59
2022/02/17 05:37:21;;;;;;;;;;;16.60;62.30;;;;;;4230458;28;20066;-59
2022/02/17 05:40:11;;;;;;;12.07;3.83;;;16.60;62.50;;;;;;4217031;28;19938;-59
2022/02/17 05:42:34;;;;;;;12.90;2.97;;;16.60;62.60;;;;;;4230777;27;20456;-60
2022/02/17 05:45:00;;;;;;;15.75;3.15;;;16.60;62.30;;;;;;4231047;28;20147;-60
2022/02/17 05:47:22;;;;;;;17.40;3.45;;;16.60;62.40;;;;;;4230344;28;20097;-62
2022/02/17 05:49:44;;;;;;;16.80;3.95;;;16.60;62.60;;;;;;4214885;28;20054;-60
2022/02/17 05:52:07;;;;;;;19.13;3.30;;;16.60;62.30;;;;;;4214091;28;20062;-60
2022/02/17 05:54:30;;;;;;;18.23;3.38;;;16.60;62.50;;;;;;4221871;28;20063;-59
2022/02/17 05:56:52;;;;;;;14.55;3.50;;;16.60;62.50;;;;;;4223670;27;20131;-59
2022/02/17 05:59:15;;;;;;;14.43;3.78;;;16.60;62.80;;;;;;4196187;28;20122;-59
2022/02/17 06:01:38;;;;;;;14.90;3.20;;;16.50;62.30;;;;;;4192625;28;20048;-59
2022/02/17 06:04:00;;;;;;;17.88;4.07;;;16.50;62.30;;;;;;4192636;28;20550;-59
2022/02/17 06:06:22;;;;;;;13.23;3.85;;;16.50;62.20;;;;;;4192593;28;20051;-59
2022/02/17 06:08:46;;;;;;;18.92;3.75;;;16.50;61.90;;;;;;4201539;28;20131;-59
2022/02/17 06:11:09;;;;;;;11.90;3.00;;;16.50;62.10;;;;;;4209090;28;20059;-59
2022/02/17 06:13:31;;;;;;;19.77;4.43;;;16.50;62.50;;;;;;4224072;27;20043;-59
2022/02/17 06:15:56;;;;;;;16.45;3.08;;;16.50;62.00;;;;;;4226017;28;20051;-59
2022/02/17 06:18:18;;;;;;;15.70;3.38;;;16.60;62.10;;;;;;4203228;28;20485;-60
2022/02/17 06:20:42;;;;;;;16.02;3.22;;;16.60;61.60;;;;;;4208298;28;20136;-60
2022/02/17 06:23:05;;;;;;;16.05;3.40;;;16.60;62.10;;;;;;4217344;28;20073;-59
2022/02/17 06:25:27;;;;;;;12.55;3.83;;;16.50;62.10;;;;;;4225784;28;20479;-60
2022/02/17 06:27:51;;;;;;;11.73;3.55;;;16.50;62.30;;;;;;4221243;28;20106;-60
2022/02/17 06:30:15;;;;;;;20.00;4.05;;;16.50;62.30;;;;;;4209031;28;20047;-60
2022/02/17 06:32:45;;;;;;;16.27;3.30;;;16.60;62.70;;;;;;4208842;28;20089;-60
2022/02/17 06:35:08;;;;;;;14.30;4.30;;;16.60;62.40;;;;;;4192327;28;20052;-60
2022/02/17 06:37:30;;;;;;;11.60;2.80;;;16.60;63.00;;;;;;4218326;28;20131;-66
2022/02/17 06:39:53;;;;;;;14.07;3.63;;;16.70;62.00;;;;;;4209031;28;20055;-65
2022/02/17 06:42:15;;;;;;;14.60;3.40;;;16.70;61.80;;;;;;4209151;28;20480;-65
2022/02/17 06:44:38;;;;;;;11.23;2.63;;;16.70;61.90;;;;;;4209160;28;20051;-66
2022/02/17 06:47:01;;;;;;;17.98;3.85;;;16.70;61.50;;;;;;4208894;28;20490;-66
2022/02/17 06:49:23;;;;;;;16.95;3.50;;;16.60;61.00;;;;;;4207390;28;20352;-65
2022/02/17 06:51:45;;;;;;;13.77;3.08;;;16.60;61.80;;;;;;4208773;27;20512;-65
2022/02/17 06:54:08;;;;;;;16.02;3.85;;;16.60;61.50;;;;;;4208885;28;20150;-66
2022/02/17 06:56:30;;;;;;;16.02;4.07;;;16.60;61.90;;;;;;4209834;28;20048;-65
2022/02/17 06:58:52;;;;;;;12.10;2.88;;;16.60;62.30;;;;;;4181974;28;20051;-64
2022/02/17 07:01:17;;;;;;;17.08;3.55;;;16.60;62.30;;;;;;4195432;28;20045;-65
2022/02/17 07:03:39;;;;;;;16.85;3.53;;;16.60;62.10;;;;;;4195408;28;20568;-64
2022/02/17 07:06:02;;;;;;;16.38;3.10;;;16.70;62.20;;;;;;4228078;27;20181;-64
2022/02/17 07:08:24;;;;;;;13.20;3.33;;;16.80;62.00;;;;;;4213550;28;20101;-64
2022/02/17 07:10:55;;;;;;;13.45;3.55;;;16.90;61.40;;;;;;4219322;28;20528;-64
2022/02/17 07:13:17;;;;;;;15.35;3.20;;;16.90;61.20;;;;;;4227282;27;20116;-66
2022/02/17 07:15:40;;;;;;;12.75;3.40;;;16.90;60.90;;;;;;4211567;28;20404;-65
2022/02/17 07:18:05;;;;;;;14.05;3.22;;;16.90;60.70;;;;;;4211851;28;20135;-65
2022/02/17 07:20:27;;;;;;;12.57;2.65;;;16.90;61.00;;;;;;4211452;28;20134;-61
2022/02/17 07:22:49;;;;;;;20.90;3.95;;;16.90;60.80;;;;;;4212026;27;20546;-65
2022/02/17 07:25:12;;;;;;;13.40;3.28;;;16.80;61.10;;;;;;4219398;27;20482;-65
2022/02/17 07:27:34;;;;;;;14.07;3.65;;;16.70;61.30;;;;;;4211411;28;20161;-66
2022/02/17 07:29:56;;;;;;;13.40;3.55;;;16.70;61.50;;;;;;4211771;28;20125;-66
2022/02/17 07:32:19;;;;;;;9.68;1.90;;;16.70;61.40;;;;;;4211656;28;20052;-66
2022/02/17 07:35:01;;;;;;;15.27;2.92;;;16.60;61.40;;;;;;4211451;28;20490;-65
2022/02/17 07:37:24;;;;;;;16.45;3.15;;;16.60;61.90;;;;;;4211564;28;20046;-65
2022/02/17 07:39:47;;;;;;;12.25;2.78;;;16.60;61.90;;;;;;4207016;28;20139;-65
2022/02/17 07:42:09;;;;;;;11.38;2.65;;;16.60;61.60;;;;;;4211613;28;20071;-65
2022/02/17 07:44:32;;;;;;;9.95;2.45;;;16.60;61.70;;;;;;4202271;28;20056;-64
2022/02/17 07:46:54;;;;;;;15.23;3.53;;;16.60;61.80;;;;;;4194493;28;20417;-65
2022/02/17 07:49:17;;;;;;;12.25;3.47;;;16.60;61.70;;;;;;4201306;28;20074;-65
2022/02/17 07:51:40;;;;;;;17.60;3.25;;;16.60;61.70;;;;;;4211452;28;20055;-65
2022/02/17 07:54:02;;;;;;;18.45;3.20;;;16.60;61.80;;;;;;4195771;28;20052;-65
2022/02/17 07:56:25;;;;;;;14.15;3.30;;;16.60;61.90;;;;;;4194621;28;20048;-65
2022/02/17 07:58:47;;;;;;;16.33;2.85;;;16.50;62.20;;;;;;4197026;28;20532;-65
2022/02/17 08:01:10;;;;;;;12.02;2.58;;;16.60;62.20;;;;;;4211290;28;20051;-66
2022/02/17 08:03:33;;;;;;;14.65;2.75;;;16.70;62.40;;;;;;4202333;28;20067;-66
2022/02/17 08:05:55;;;;;;;10.48;3.00;;;16.70;61.60;;;;;;4208889;28;20056;-67
2022/02/17 08:08:41;;;;;;;14.00;2.45;;;16.70;61.60;;;;;;4208303;28;20048;-66
2022/02/17 08:11:05;;;;;;;11.82;3.58;;;16.70;61.50;;;;;;4207984;28;20052;-65
2022/02/17 08:13:27;;;;;;;13.20;2.65;;;16.70;61.20;;;;;;4208519;28;20051;-66
2022/02/17 08:15:50;;;;;;;12.82;3.35;;;16.70;61.30;;;;;;4208016;28;20047;-65
2022/02/17 08:18:14;;;;;;;10.82;2.65;;;16.70;61.60;;;;;;4208634;28;20494;-67
2022/02/17 08:20:37;;;;;;;14.15;3.30;;;16.70;62.00;;;;;;4207773;28;20048;-66
2022/02/17 08:22:59;;;;;;;17.58;3.40;;;16.70;62.10;;;;;;4208541;28;20586;-66
2022/02/17 08:25:24;;;;;;;12.32;3.03;;;16.70;62.00;;;;;;4208550;28;20043;-66
2022/02/17 08:27:47;;;;;;;9.18;2.50;;;16.70;62.10;;;;;;4208457;28;20412;-66
2022/02/17 08:30:11;;;;;;;18.90;3.70;;;16.70;62.10;;;;;;4208397;28;20052;-66
2022/02/17 08:32:35;;;;;;;15.82;3.47;;;16.60;61.80;;;;;;4209055;28;20449;-66
2022/02/17 08:34:58;;;;;;;11.90;2.67;;;16.60;61.80;;;;;;4208137;28;20062;-66
2022/02/17 08:37:20;;;;;;;16.90;3.38;;;16.60;61.80;;;;;;4208116;28;20055;-66
2022/02/17 08:39:43;;;;;;;14.88;3.90;;;16.50;62.40;;;;;;4208653;28;20146;-66
2022/02/17 08:42:07;;;;;;;13.82;3.20;;;16.40;62.20;;;;;;4208572;28;20051;-66
2022/02/17 08:44:30;;;;;;;18.73;3.60;;;16.40;62.70;;;;;;4208476;28;20132;-66
2022/02/17 08:46:52;;;;;;;15.10;3.85;;;16.40;62.40;;;;;;4208042;28;20125;-66
2022/02/17 08:49:15;;;;;;;18.77;3.40;;;16.40;63.70;;;;;;4208018;28;20054;-66
2022/02/17 08:51:37;;;;;;;14.27;3.05;;;16.40;63.00;;;;;;4207877;28;20090;-66
2022/02/17 08:54:00;;;;;;;10.63;2.75;;;16.40;62.70;;;;;;4207797;28;20853;-62
2022/02/17 08:56:23;;;;;;;10.27;2.83;;;16.40;62.80;;;;;;4208195;28;20075;-65
2022/02/17 08:58:48;;;;;;;18.05;3.58;;;16.40;63.10;;;;;;4207910;28;20101;-65
2022/02/17 09:01:11;;;;;;;17.92;3.80;;;16.40;63.10;;;;;;4207922;28;20047;-64
2022/02/17 09:03:33;;;;;;;16.17;3.13;;;16.40;63.00;;;;;;4207574;28;20063;-65
2022/02/17 09:05:56;;;;;;;18.48;3.42;;;16.40;63.10;;;;;;4206466;28;20044;-65
2022/02/17 09:08:36;;;;;;;18.48;3.67;;;16.40;62.90;;;;;;4208037;28;20063;-65
2022/02/17 09:10:58;;;;;;;23.95;4.38;;;16.40;62.40;;;;;;4207635;28;20051;-65
2022/02/17 09:13:23;;;;;;;20.00;3.97;;;16.40;62.40;;;;;;4207521;28;20051;-65
2022/02/17 09:15:46;;;;;;;14.68;3.72;;;16.40;63.20;;;;;;4207518;28;20096;-65
2022/02/17 09:18:09;;;;;;;14.82;3.42;;;16.30;62.70;;;;;;4205028;28;20101;-65
2022/02/17 09:20:35;;;;;;;18.48;3.92;;;16.40;62.80;;;;;;4207334;28;20052;-65
2022/02/17 09:22:58;;;;;;;15.20;3.42;;;16.30;62.90;;;;;;4206641;28;20051;-65
2022/02/17 09:25:21;;;;;;;12.63;3.05;;;16.30;63.10;;;;;;4207687;28;20054;-65
2022/02/17 09:27:43;;;;;;;12.85;2.58;;;16.30;63.40;;;;;;4207434;28;20144;-65
2022/02/17 09:30:10;;;;;;;14.25;3.05;;;16.30;63.50;;;;;;4208570;28;20127;-65
2022/02/17 09:32:34;;;;;;;15.93;3.53;;;16.40;63.30;;;;;;4207724;28;20424;-65
2022/02/17 09:34:56;;;;;;;16.35;3.58;;;16.40;63.00;;;;;;4207283;28;20052;-65
2022/02/17 09:37:18;;;;;;;17.67;3.47;;;16.50;63.10;;;;;;4207432;28;20368;-65
2022/02/17 09:39:41;;;;;;;16.13;3.17;;;16.50;63.00;;;;;;4220190;27;20071;-66
2022/02/17 09:42:06;;;;;;;18.35;3.25;;;16.50;63.00;;;;;;4207210;28;20563;-65
2022/02/17 09:44:28;;;;;;;13.05;3.47;;;16.50;62.80;;;;;;4207520;28;20067;-65
2022/02/17 09:46:52;;;;;;;14.82;3.00;;;16.50;62.60;;;;;;4206863;28;20477;-65
2022/02/17 09:49:18;;;;;;;15.00;3.85;;;16.50;62.60;;;;;;4207425;28;20109;-65
2022/02/17 09:51:40;;;;;;;15.45;3.38;;;16.40;62.10;;;;;;4207166;28;20567;-65
2022/02/17 09:54:03;;;;;;;16.05;3.22;;;16.40;62.80;;;;;;4206988;28;20047;-65
2022/02/17 09:56:26;;;;;;;11.73;3.08;;;16.30;63.20;;;;;;4207232;28;20424;-65
2022/02/17 09:58:48;;;;;;;14.15;3.35;;;16.30;62.50;;;;;;4207098;28;20067;-66
2022/02/17 10:01:17;;;;;;;15.75;3.88;;;16.20;63.10;;;;;;4206853;28;20059;-66
2022/02/17 10:03:40;;;;;;;17.20;3.25;;;16.10;62.90;;;;;;4206719;28;20139;-67
2022/02/17 10:06:24;;;;;;;13.40;3.30;;;16.10;63.70;;;;;;4206276;28;20062;-64
2022/02/17 10:08:47;;;;;;;20.33;3.92;;;16.10;62.80;;;;;;4206630;28;20924;-64
2022/02/17 10:11:27;;;;;;;14.13;3.30;;;16.10;63.70;;;;;;4206742;28;20486;-64
2022/02/17 10:13:59;;;;;;;18.25;3.80;;;16.10;63.60;;;;;;4206718;28;21006;-65
2022/02/17 10:16:22;;;;;;;12.77;3.80;;;16.20;63.80;;;;;;4206184;28;20048;-65
2022/02/17 10:18:44;;;;;;;21.48;3.60;;;16.10;63.70;;;;;;4206620;28;20151;-65
2022/02/17 10:21:09;;;;;;;15.35;2.80;;;16.20;63.50;;;;;;4206472;28;20407;-65
2022/02/17 10:23:34;;;;;;;17.67;3.47;;;16.10;63.70;;;;;;4206209;28;20062;-65
2022/02/17 10:25:59;;;;;;;14.50;3.38;;;16.10;63.40;;;;;;4206613;28;20395;-65
2022/02/17 10:28:23;;;;;;;15.75;4.78;;;16.20;64.10;;;;;;4206270;28;20052;-65
2022/02/17 10:30:45;;;;;;;16.35;4.13;;;16.20;64.00;;;;;;4207239;28;20074;-65
2022/02/17 10:33:08;;;;;;;16.58;3.85;;;16.30;63.60;;;;;;4206687;28;20222;-65
2022/02/17 10:35:30;;;;;;;25.08;6.35;;;16.40;63.40;;;;;;4207457;28;20044;-65
2022/02/17 10:37:54;;;;;;;17.67;3.97;;;16.40;63.20;;;;;;4210419;28;20048;-69
2022/02/17 10:40:22;;;;;;;17.67;4.50;;;16.40;63.00;;;;;;4210132;28;20058;-66
2022/02/17 10:42:58;;;;;;;18.05;3.88;;;16.40;63.00;;;;;;4210366;27;20067;-66
2022/02/17 10:45:29;;;;;;;19.50;3.92;;;16.40;63.00;;;;;;4209904;28;20055;-65
2022/02/17 10:47:54;;;;;;;16.45;4.35;;;16.40;62.60;;;;;;4209710;28;20472;-65
2022/02/17 10:50:17;;;;;;;23.25;4.07;;;16.40;62.40;;;;;;4208863;28;20135;-66
2022/02/17 10:52:41;;;;;;;16.42;4.38;;;16.40;62.50;;;;;;4209028;28;20048;-65
2022/02/17 10:55:13;;;;;;;12.35;3.60;;;16.40;62.60;;;;;;4208334;28;20048;-66
2022/02/17 10:57:37;;;;;;;15.60;5.18;;;16.40;62.20;;;;;;4209238;28;20510;-65
2022/02/17 11:00:12;;;;;;;19.67;4.93;;;16.40;62.40;;;;;;4209581;28;20059;-66
2022/02/17 11:02:35;;;;;;;20.95;4.07;;;16.50;62.10;;;;;;4208837;28;20056;-65
2022/02/17 11:04:57;;;;;;;16.33;4.07;;;16.50;62.30;;;;;;4209346;28;20472;-66
2022/02/17 11:07:20;;;;;;;16.80;3.58;;;16.50;62.30;;;;;;4209289;28;20048;-65
2022/02/17 11:09:45;;;;;;;14.85;3.53;;;16.40;62.10;;;;;;4209335;28;20052;-66
2022/02/17 11:12:08;;;;;;;18.63;3.97;;;16.40;62.20;;;;;;4209587;28;20048;-66
2022/02/17 11:14:39;;;;;;;19.45;3.65;;;16.40;62.30;;;;;;4209099;28;20051;-66
2022/02/17 11:17:02;;;;;;;17.23;3.45;;;16.40;62.20;;;;;;4209397;28;20478;-65
2022/02/17 11:19:44;;;;;;;12.82;3.38;;;16.30;62.30;;;;;;4209644;28;20060;-66
2022/02/17 11:22:14;;;;;;;15.95;3.58;;;16.30;62.50;;;;;;4209050;28;20044;-66
2022/02/17 11:24:53;;;;;;;16.63;3.83;;;16.30;62.60;;;;;;4209336;28;20055;-66
2022/02/17 11:27:15;;;;;;;11.68;2.28;;;16.20;62.60;;;;;;4210019;28;20075;-66
2022/02/17 11:29:41;;;;;;;15.32;4.10;;;16.20;62.70;;;;;;4208802;28;20058;-65
2022/02/17 11:32:06;;;;;;;11.73;3.25;;;16.20;63.10;;;;;;4208507;28;20048;-66
2022/02/17 11:34:41;;;;;;;16.83;3.97;;;16.20;63.10;;;;;;4207749;28;20051;-65
2022/02/17 11:37:36;;;;;;;12.18;3.58;;;16.10;62.80;;;;;;4209061;27;20048;-65
2022/02/17 11:40:02;;;;;;;11.85;3.22;;;16.10;63.10;;;;;;4208745;28;20063;-65
2022/02/17 11:42:29;;;;;;;13.23;3.00;;;16.10;63.40;;;;;;4208758;28;20495;-65
2022/02/17 11:45:07;;;;;;;13.70;3.20;;;16.00;63.40;;;;;;4209091;28;20365;-65
2022/02/17 11:48:02;;;;;;;16.27;3.45;;;16.00;63.00;;;;;;4207636;28;20055;-65
2022/02/17 11:50:40;;;;;;;14.30;3.10;;;16.00;63.50;;;;;;4208626;28;20051;-65
2022/02/17 11:53:28;;;;;;;8.65;2.78;;;16.00;63.40;;;;;;4208706;28;20051;-66
2022/02/17 11:55:51;;;;;;;16.85;2.55;;;15.90;63.90;;;;;;4208916;28;20054;-66
2022/02/17 11:58:45;;;;;;;14.90;3.28;;;15.90;63.10;;;;;;4208930;28;20055;-66
2022/02/17 12:01:38;;;;;;;7.85;3.08;;;15.90;62.50;;;;;;4208795;28;20135;-66
2022/02/17 12:04:02;;;;;;;14.45;2.92;;;15.80;62.80;;;;;;4206515;28;20131;-67
2022/02/17 12:06:47;;;;;;;13.32;2.42;;;15.80;62.80;;;;;;4207260;28;20047;-66
2022/02/17 12:09:10;;;;;;;11.13;2.67;;;15.80;63.80;;;;;;4208413;28;20488;-66
2022/02/17 12:11:36;;;;;;;11.68;2.67;;;15.80;62.60;;;;;;4208936;28;20047;-67
2022/02/17 12:14:00;;;;;;;9.85;2.47;;;15.80;62.60;;;;;;4208959;28;20078;-67
2022/02/17 12:16:46;;;;;;;10.50;2.35;;;15.80;62.70;;;;;;4208399;28;20048;-67
2022/02/17 12:19:13;;;;;;;14.85;3.15;;;15.70;62.30;;;;;;4208547;28;20412;-68
2022/02/17 12:21:37;;;;;;;12.80;2.58;;;15.70;62.80;;;;;;4208435;28;20131;-67
2022/02/17 12:24:00;;;;;;;20.35;3.55;;;15.70;62.90;;;;;;4209052;28;20039;-66
2022/02/17 12:26:39;;;;;;;14.60;2.95;;;15.70;61.50;;;;;;4206931;28;20044;-66
2022/02/17 12:29:01;;;;;;;11.60;2.15;;;15.70;62.40;;;;;;4207977;28;20067;-65
2022/02/17 12:31:37;;;;;;;12.52;2.65;;;15.70;61.70;;;;;;4208157;28;20048;-66